createdAt,value
2019-03-21T00:00:15.728Z,0.00
2019-03-21T00:01:15.732Z,0.00
2019-03-21T00:02:15.940Z,0.00
2019-03-21T00:03:15.722Z,0.00
2019-03-21T00:04:15.711Z,0.00
2019-03-21T00:05:15.705Z,0.00
2019-03-21T00:06:15.704Z,0.00
2019-03-21T00:07:15.697Z,0.00
2019-03-21T01:25:42.468Z,0.00
2019-03-21T01:26:42.164Z,0.00
2019-03-21T01:27:42.212Z,0.00
2019-03-21T01:28:42.159Z,0.00
2019-03-21T01:29:42.150Z,0.00
2019-03-21T01:30:42.145Z,0.00
2019-03-21T01:31:42.140Z,0.00
2019-03-21T01:32:42.135Z,0.00
2019-03-21T01:33:42.128Z,0.00
2019-03-21T01:38:51.086Z,0.00
2019-03-21T01:39:51.080Z,0.00
2019-03-21T01:40:51.073Z,0.00
2019-03-21T01:41:51.070Z,0.00
2019-03-21T01:42:51.071Z,0.00
2019-03-21T01:43:51.058Z,0.00
2019-03-21T01:44:51.053Z,0.00
2019-03-21T01:46:51.058Z,0.00
2019-03-21T01:47:51.044Z,0.00
2019-03-21T01:48:51.034Z,0.00
2019-03-21T01:49:51.028Z,0.00
2019-03-21T01:50:51.024Z,0.00
2019-03-21T01:51:51.018Z,0.00
2019-03-21T01:52:51.015Z,0.00
2019-03-21T01:53:51.008Z,0.00
2019-03-21T01:54:51.005Z,0.00
2019-03-21T01:55:51.300Z,0.00
2019-03-21T01:56:50.998Z,0.00
2019-03-21T01:57:50.988Z,0.00
2019-03-21T01:58:50.985Z,0.00
2019-03-21T01:59:50.981Z,0.00
2019-03-21T02:00:50.975Z,0.00
2019-03-21T02:01:50.969Z,0.00
2019-03-21T02:02:50.966Z,0.00
2019-03-21T02:30:19.723Z,0.00
2019-03-21T02:31:19.273Z,0.00
2019-03-21T02:32:19.262Z,0.00
2019-03-21T02:33:19.262Z,0.00
2019-03-21T02:34:19.254Z,0.00
2019-03-21T02:35:19.251Z,0.00
2019-03-21T02:36:19.244Z,0.00
2019-03-21T02:37:19.241Z,0.00
2019-03-21T02:38:19.234Z,0.00
2019-03-21T02:39:19.230Z,0.00
2019-03-21T02:40:19.229Z,0.00
2019-03-21T02:41:19.222Z,0.00
2019-03-21T02:42:19.217Z,0.00
2019-03-21T02:43:19.213Z,0.00
2019-03-21T02:44:19.208Z,0.00
2019-03-21T02:45:19.276Z,0.00
2019-03-21T02:46:19.260Z,0.00
2019-03-21T02:47:19.192Z,0.00
2019-03-21T02:48:19.186Z,0.00
2019-03-21T04:52:39.408Z,0.00
2019-03-21T04:53:39.102Z,0.00
2019-03-21T04:54:39.095Z,0.00
2019-03-21T04:55:39.092Z,0.00
2019-03-21T04:56:39.085Z,0.00
2019-03-21T05:37:53.580Z,36.00
2019-03-21T08:41:39.719Z,9508.00
2019-03-21T08:42:39.715Z,6928.00
2019-03-21T08:43:39.710Z,9808.00
2019-03-21T08:44:39.710Z,5036.00
2019-03-21T08:45:39.705Z,3788.00
2019-03-21T08:46:39.701Z,3848.00
2019-03-21T08:47:39.695Z,3892.00
2019-03-21T08:48:39.695Z,3888.00
2019-03-21T08:49:39.688Z,3824.00
2019-03-21T08:50:39.686Z,3784.00
2019-03-21T08:51:39.684Z,4020.00
2019-03-21T08:52:39.680Z,4232.00
2019-03-21T08:53:39.673Z,4080.00
2019-03-21T08:54:39.672Z,4088.00
2019-03-21T08:55:39.667Z,3880.00
2019-03-21T08:57:39.664Z,4576.00
2019-03-21T08:58:39.657Z,4144.00
2019-03-21T08:59:39.858Z,3720.00
2019-03-21T09:00:39.650Z,3668.00
2019-03-21T09:34:21.096Z,3424.00
2019-03-21T09:35:21.043Z,3432.00
2019-03-21T09:36:21.039Z,3492.00
2019-03-21T09:37:21.040Z,3512.00
2019-03-21T09:38:21.035Z,3476.00
2019-03-21T09:39:21.037Z,3568.00
2019-03-21T09:40:21.030Z,3532.00
2019-03-21T09:41:21.030Z,3532.00
2019-03-21T09:42:21.026Z,3580.00
2019-03-21T09:43:21.025Z,3576.00
2019-03-21T09:44:21.022Z,3624.00
2019-03-21T09:45:21.020Z,3596.00
2019-03-21T09:46:21.020Z,3624.00
2019-03-21T09:48:21.013Z,3540.00
2019-03-21T09:49:22.425Z,3548.00
2019-03-21T09:50:21.013Z,3488.00
2019-03-21T09:51:30.563Z,3528.00
2019-03-21T09:52:21.004Z,3568.00
2019-03-21T09:53:21.003Z,3568.00
2019-03-21T09:54:21.001Z,3636.00
2019-03-21T09:55:20.995Z,3608.00
2019-03-21T11:10:24.382Z,4508.00
2019-03-21T11:11:24.381Z,4364.00
2019-03-21T11:12:24.376Z,4400.00
2019-03-21T11:13:24.379Z,4388.00
2019-03-21T11:14:24.372Z,4460.00
